createdAt,value
2022-10-24T00:00:15.810Z,20.60
2022-10-24T00:02:43.081Z,29.15
2022-10-24T00:05:13.209Z,16.27
2022-10-24T00:07:41.180Z,29.23
2022-10-24T00:10:09.257Z,18.23
2022-10-24T00:12:36.447Z,24.90
2022-10-24T00:15:04.293Z,29.08
2022-10-24T00:17:31.462Z,20.55
2022-10-24T00:19:59.979Z,26.50
2022-10-24T00:22:27.769Z,25.95
2022-10-24T00:24:55.076Z,23.67
2022-10-24T00:27:22.320Z,31.13
2022-10-24T00:29:49.515Z,23.30
2022-10-24T00:32:16.659Z,23.98
2022-10-24T00:34:43.924Z,22.15
2022-10-24T00:37:11.150Z,20.77
2022-10-24T00:39:38.328Z,18.63
2022-10-24T00:42:05.519Z,22.77
2022-10-24T00:44:36.855Z,15.32
2022-10-24T00:47:05.701Z,22.65
2022-10-24T00:49:36.978Z,20.63
2022-10-24T00:52:05.504Z,20.02
2022-10-24T00:54:32.800Z,18.92
2022-10-24T00:56:59.995Z,28.73
2022-10-24T00:59:27.662Z,40.10
2022-10-24T01:01:55.049Z,19.85
2022-10-24T01:04:22.345Z,22.13
2022-10-24T01:07:04.831Z,27.27
2022-10-24T01:09:32.042Z,23.42
2022-10-24T01:12:04.928Z,34.15
2022-10-24T01:14:44.900Z,31.83
2022-10-24T01:17:15.279Z,17.73
2022-10-24T01:19:45.440Z,25.27
2022-10-24T01:22:18.568Z,23.35
2022-10-24T01:24:48.567Z,28.73
2022-10-24T01:27:21.841Z,25.05
2022-10-24T01:29:55.428Z,38.75
2022-10-24T01:32:42.868Z,26.23
2022-10-24T01:35:13.051Z,35.85
2022-10-24T01:37:43.096Z,28.67
2022-10-24T01:40:14.919Z,30.10
2022-10-24T01:42:43.344Z,38.75
2022-10-24T01:45:11.782Z,37.40
2022-10-24T01:47:41.060Z,38.88
2022-10-24T01:50:10.650Z,47.92
2022-10-24T01:52:40.072Z,38.08
2022-10-24T01:55:07.738Z,26.95
2022-10-24T01:57:35.895Z,37.45
2022-10-24T02:00:04.176Z,42.70
2022-10-24T02:02:34.588Z,45.17
2022-10-24T02:05:01.776Z,33.92
2022-10-24T02:07:29.673Z,22.02
2022-10-24T02:10:03.980Z,48.53
2022-10-24T02:12:31.919Z,45.70
2022-10-24T02:15:03.797Z,19.33
2022-10-24T02:17:31.504Z,28.30
2022-10-24T02:19:59.245Z,33.28
2022-10-24T02:22:31.343Z,39.75
2022-10-24T02:25:03.743Z,33.90
2022-10-24T02:27:34.060Z,28.85
2022-10-24T02:30:07.473Z,29.55
2022-10-24T02:32:38.034Z,27.67
2022-10-24T02:35:06.428Z,37.60
2022-10-24T02:37:35.220Z,27.45
2022-10-24T02:40:03.339Z,29.08
2022-10-24T02:42:30.911Z,40.65
2022-10-24T02:44:58.347Z,31.33
2022-10-24T02:47:26.739Z,21.65
2022-10-24T02:49:54.236Z,48.83
2022-10-24T02:52:21.907Z,21.55
2022-10-24T02:54:49.123Z,36.92
2022-10-24T02:57:16.408Z,27.65
2022-10-24T02:59:43.603Z,32.70
2022-10-24T03:02:10.840Z,25.52
2022-10-24T03:04:38.063Z,26.75
2022-10-24T03:07:05.263Z,36.83
2022-10-24T03:09:32.486Z,50.90
2022-10-24T03:11:59.834Z,29.80
2022-10-24T03:14:27.111Z,17.95
2022-10-24T03:16:54.356Z,35.20
2022-10-24T03:19:21.622Z,23.17
2022-10-24T03:21:48.852Z,22.38
2022-10-24T03:24:22.895Z,23.38
2022-10-24T03:26:58.642Z,16.65
2022-10-24T03:29:25.984Z,21.98
2022-10-24T03:31:53.167Z,21.63
2022-10-24T03:34:20.351Z,26.17
2022-10-24T03:36:47.585Z,27.85
2022-10-24T03:39:14.817Z,14.52
2022-10-24T03:41:41.979Z,21.15
2022-10-24T03:44:09.193Z,23.95
2022-10-24T03:46:36.454Z,12.68
2022-10-24T03:49:03.674Z,23.27
2022-10-24T03:51:30.851Z,14.25
2022-10-24T03:53:58.041Z,20.67
2022-10-24T03:56:25.248Z,17.02
2022-10-24T03:58:52.549Z,18.63
2022-10-24T04:01:19.886Z,16.83
2022-10-24T04:03:47.379Z,23.98
2022-10-24T04:06:14.982Z,20.42
2022-10-24T04:08:42.571Z,19.67
2022-10-24T04:11:09.939Z,17.08
2022-10-24T04:13:37.619Z,14.73
2022-10-24T04:16:04.907Z,6.93
2022-10-24T04:18:32.198Z,9.90
2022-10-24T04:20:59.413Z,9.30
2022-10-24T04:23:27.244Z,17.52
2022-10-24T04:25:54.817Z,14.98
2022-10-24T04:28:22.025Z,9.13
2022-10-24T04:30:54.827Z,11.10
2022-10-24T04:33:22.118Z,10.02
2022-10-24T04:35:49.893Z,16.70
2022-10-24T04:38:17.436Z,6.25
2022-10-24T04:40:49.249Z,10.15
2022-10-24T04:43:16.609Z,11.20
2022-10-24T04:45:43.860Z,5.38
2022-10-24T04:48:11.083Z,20.67
2022-10-24T04:50:40.008Z,14.45
2022-10-24T04:53:07.279Z,10.25
2022-10-24T04:55:34.571Z,10.27
2022-10-24T04:58:01.986Z,6.10
2022-10-24T05:00:29.258Z,13.40
2022-10-24T05:02:58.954Z,6.93
2022-10-24T05:05:26.700Z,9.82
2022-10-24T05:07:53.879Z,7.60
2022-10-24T05:10:21.196Z,8.88
2022-10-24T05:12:48.610Z,18.85
2022-10-24T05:15:15.998Z,15.65
2022-10-24T05:17:43.252Z,4.75
2022-10-24T05:20:10.804Z,8.23
2022-10-24T05:22:38.012Z,5.15
2022-10-24T05:25:05.625Z,9.20
2022-10-24T05:27:32.868Z,5.68
2022-10-24T05:30:00.066Z,6.68
2022-10-24T05:32:27.401Z,7.57
2022-10-24T05:34:54.612Z,9.60
2022-10-24T05:37:21.821Z,6.90
2022-10-24T05:39:49.089Z,4.47
2022-10-24T05:42:16.533Z,13.10
2022-10-24T05:44:43.841Z,11.18
2022-10-24T05:47:11.047Z,13.82
2022-10-24T05:49:38.325Z,18.98
2022-10-24T05:52:05.660Z,27.83
2022-10-24T05:54:42.580Z,21.95
2022-10-24T05:57:20.057Z,23.38
2022-10-24T05:59:47.229Z,24.17
2022-10-24T06:02:21.214Z,23.48
2022-10-24T06:04:50.198Z,15.30
2022-10-24T06:07:18.552Z,11.80
2022-10-24T06:09:45.760Z,19.65
2022-10-24T06:12:13.056Z,15.30
2022-10-24T06:14:40.615Z,18.67
2022-10-24T06:17:09.685Z,19.77
2022-10-24T06:19:37.645Z,27.00
2022-10-24T06:22:05.789Z,14.93
2022-10-24T06:24:34.894Z,14.85
2022-10-24T06:27:02.243Z,18.13
2022-10-24T06:29:29.437Z,13.40
2022-10-24T06:31:56.659Z,18.70
2022-10-24T06:34:23.921Z,15.00
2022-10-24T06:36:51.158Z,17.27
2022-10-24T06:39:18.523Z,9.02
2022-10-24T06:41:45.759Z,16.88
2022-10-24T06:44:13.113Z,9.82
2022-10-24T06:46:40.363Z,16.27
2022-10-24T06:49:07.879Z,8.27
2022-10-24T06:51:35.166Z,15.35
2022-10-24T06:54:02.540Z,16.45
2022-10-24T06:56:29.917Z,24.70
2022-10-24T06:58:57.208Z,14.82
2022-10-24T07:01:25.246Z,14.27
2022-10-24T07:03:55.142Z,5.63
2022-10-24T07:06:24.304Z,11.80
2022-10-24T07:08:52.611Z,14.30
2022-10-24T07:11:20.319Z,9.57
2022-10-24T07:13:47.845Z,5.45
2022-10-24T07:16:15.606Z,8.60
2022-10-24T07:18:43.010Z,9.25
2022-10-24T07:21:13.733Z,10.13
2022-10-24T07:23:41.044Z,9.82
2022-10-24T07:26:10.183Z,10.55
2022-10-24T07:28:37.940Z,18.60
2022-10-24T07:31:05.844Z,16.73
2022-10-24T07:33:33.072Z,17.75
2022-10-24T07:36:00.441Z,8.90
2022-10-24T07:38:27.796Z,17.83
2022-10-24T07:40:55.244Z,11.45
2022-10-24T07:43:22.539Z,8.93
2022-10-24T07:45:52.036Z,20.10
2022-10-24T07:48:20.067Z,12.50
2022-10-24T07:50:48.099Z,19.85
2022-10-24T07:53:15.625Z,8.70
2022-10-24T07:55:43.675Z,19.38
2022-10-24T07:58:11.756Z,23.80
2022-10-24T08:00:44.038Z,19.55
2022-10-24T08:03:12.423Z,12.02
2022-10-24T08:05:42.608Z,15.70
2022-10-24T08:08:30.966Z,17.00
2022-10-24T08:10:57.411Z,12.10
2022-10-24T08:13:24.948Z,15.70
2022-10-24T08:15:52.146Z,12.63
2022-10-24T08:18:19.368Z,9.73
2022-10-24T08:20:46.619Z,7.82
2022-10-24T08:23:13.838Z,13.20
2022-10-24T08:25:41.956Z,7.57
2022-10-24T08:28:09.416Z,10.40
2022-10-24T08:30:36.679Z,18.10
2022-10-24T08:33:03.871Z,9.80
2022-10-24T08:35:31.112Z,5.60
2022-10-24T08:37:58.810Z,8.85
2022-10-24T08:40:26.267Z,12.82
2022-10-24T08:42:53.476Z,4.20
2022-10-24T08:45:27.858Z,12.65
2022-10-24T08:48:21.469Z,4.85
2022-10-24T08:50:51.016Z,6.05
2022-10-24T08:53:23.651Z,8.05
2022-10-24T08:55:55.448Z,11.13
2022-10-24T08:58:26.219Z,13.47
2022-10-24T09:00:54.648Z,12.80
2022-10-24T09:03:51.263Z,11.95
2022-10-24T09:06:20.939Z,10.82
2022-10-24T09:08:52.728Z,13.98
2022-10-24T09:11:27.057Z,10.40
2022-10-24T09:13:55.299Z,7.65
2022-10-24T09:16:23.661Z,3.45
2022-10-24T09:18:53.347Z,7.18
2022-10-24T09:21:20.784Z,5.30
2022-10-24T09:23:48.360Z,6.60
2022-10-24T09:26:23.388Z,9.32
2022-10-24T09:28:50.629Z,4.07
2022-10-24T09:31:19.934Z,5.45
2022-10-24T09:33:48.312Z,6.72
2022-10-24T09:36:16.652Z,2.70
2022-10-24T09:38:44.485Z,4.30
2022-10-24T09:41:14.395Z,8.68
2022-10-24T09:43:45.833Z,3.35
2022-10-24T09:46:15.727Z,5.88
2022-10-24T09:48:42.895Z,8.32
2022-10-24T09:51:17.851Z,5.18
2022-10-24T09:53:58.403Z,3.17
2022-10-24T09:56:33.258Z,9.75
2022-10-24T09:59:17.743Z,8.45
2022-10-24T10:01:45.680Z,6.22
2022-10-24T10:04:19.975Z,8.10
2022-10-24T10:06:48.787Z,12.30
2022-10-24T10:09:23.922Z,7.50
2022-10-24T10:12:02.526Z,10.90
2022-10-24T10:14:30.882Z,6.72
2022-10-24T10:17:06.156Z,6.97
2022-10-24T10:19:36.657Z,7.00
2022-10-24T10:22:05.458Z,14.18
2022-10-24T10:24:40.515Z,11.10
2022-10-24T10:27:23.047Z,13.63
2022-10-24T10:29:50.283Z,15.15
2022-10-24T10:32:23.734Z,12.85
2022-10-24T10:34:54.822Z,9.80
2022-10-24T10:37:31.050Z,13.15
2022-10-24T10:40:17.012Z,11.23
2022-10-24T10:42:56.655Z,15.50
2022-10-24T10:45:41.881Z,11.93
2022-10-24T10:48:21.123Z,8.48
2022-10-24T10:50:52.208Z,18.15
2022-10-24T10:53:19.407Z,10.88
2022-10-24T10:55:46.745Z,18.70
2022-10-24T10:58:16.995Z,21.08
2022-10-24T11:00:47.057Z,11.73
2022-10-24T11:03:17.117Z,19.17
2022-10-24T11:06:03.146Z,24.10
2022-10-24T11:08:30.393Z,20.65
2022-10-24T11:11:03.549Z,19.23
2022-10-24T11:13:35.296Z,20.85
2022-10-24T11:16:04.829Z,20.90
2022-10-24T11:18:35.587Z,19.25
2022-10-24T11:21:13.733Z,12.80
2022-10-24T11:23:50.061Z,17.67
2022-10-24T11:26:24.047Z,18.25
2022-10-24T11:28:51.257Z,15.45
2022-10-24T11:31:23.786Z,13.43
2022-10-24T11:34:09.875Z,13.10
2022-10-24T11:36:39.845Z,19.08
2022-10-24T11:39:19.436Z,19.60
2022-10-24T11:42:08.421Z,17.33
2022-10-24T11:44:43.880Z,16.48
2022-10-24T11:47:13.972Z,14.73
2022-10-24T11:49:44.394Z,12.13
2022-10-24T11:52:17.588Z,14.65
2022-10-24T11:54:50.971Z,15.52
2022-10-24T11:57:22.465Z,16.88
2022-10-24T11:59:52.955Z,18.45
2022-10-24T12:02:20.166Z,11.00
2022-10-24T12:05:06.304Z,18.58
2022-10-24T12:07:55.880Z,16.48
2022-10-24T12:10:41.760Z,26.10
2022-10-24T12:13:32.807Z,17.63
2022-10-24T12:16:05.983Z,16.83
2022-10-24T12:18:40.269Z,20.95
2022-10-24T12:21:20.096Z,14.80
2022-10-24T12:23:55.117Z,28.80
2022-10-24T12:26:26.971Z,19.40
2022-10-24T12:28:55.620Z,27.83
2022-10-24T12:31:26.388Z,19.65
2022-10-24T12:34:12.472Z,25.30
2022-10-24T12:36:58.274Z,21.25
2022-10-24T12:39:32.823Z,14.02
2022-10-24T12:42:00.158Z,17.88
2022-10-24T12:44:33.704Z,17.15
2022-10-24T12:47:02.253Z,25.05
2022-10-24T12:49:33.547Z,12.68
2022-10-24T12:52:20.748Z,22.38
2022-10-24T12:54:48.071Z,20.55
2022-10-24T12:57:15.250Z,16.45
2022-10-24T12:59:49.697Z,11.50
2022-10-24T13:02:17.045Z,13.07
2022-10-24T13:04:56.069Z,24.33
2022-10-24T13:07:42.383Z,16.55
2022-10-24T13:10:28.547Z,18.58
2022-10-24T13:13:01.909Z,18.98
2022-10-24T13:15:53.453Z,13.43
2022-10-24T13:18:30.288Z,18.48
2022-10-24T13:21:14.085Z,10.75
2022-10-24T13:23:43.692Z,14.75
2022-10-24T13:26:27.696Z,10.93
2022-10-24T13:28:54.897Z,13.50
2022-10-24T13:31:22.065Z,12.52
2022-10-24T13:33:54.579Z,16.98
2022-10-24T13:36:28.197Z,18.92
2022-10-24T13:38:56.028Z,22.20
2022-10-24T13:41:26.067Z,18.00
2022-10-24T13:43:53.924Z,19.80
2022-10-24T13:46:45.949Z,20.65
2022-10-24T13:49:28.743Z,15.75
2022-10-24T13:51:57.839Z,17.15
2022-10-24T13:54:30.711Z,17.20
2022-10-24T13:57:01.268Z,19.83
2022-10-24T13:59:37.299Z,14.68
2022-10-24T14:02:09.144Z,17.02
2022-10-24T14:04:36.503Z,21.42
2022-10-24T14:07:05.527Z,16.77
2022-10-24T14:09:39.577Z,17.20
2022-10-24T14:12:06.984Z,17.17
2022-10-24T14:14:39.932Z,6.85
2022-10-24T14:17:23.318Z,11.73
2022-10-24T14:20:01.646Z,11.68
2022-10-24T14:22:39.670Z,13.50
2022-10-24T14:25:07.764Z,13.85
2022-10-24T14:27:35.259Z,9.70
2022-10-24T14:30:03.700Z,17.65
2022-10-24T14:32:31.760Z,16.40
2022-10-24T14:37:34.186Z,12.75
2022-10-24T14:40:01.789Z,11.23
2022-10-24T14:42:29.333Z,14.15
2022-10-24T14:44:58.528Z,22.85
2022-10-24T14:47:29.216Z,19.55
2022-10-24T14:49:56.764Z,12.48
2022-10-24T14:52:28.862Z,7.90
2022-10-24T14:54:58.710Z,7.80
2022-10-24T14:57:26.345Z,5.38
2022-10-24T14:59:54.677Z,9.85
2022-10-24T15:02:30.722Z,13.18
2022-10-24T15:05:16.899Z,5.68
2022-10-24T15:07:57.278Z,17.55
2022-10-24T15:10:37.705Z,16.45
2022-10-24T15:13:13.923Z,19.77
2022-10-24T15:15:44.282Z,16.67
2022-10-24T15:18:20.014Z,13.90
2022-10-24T15:20:48.137Z,14.57
2022-10-24T15:23:41.740Z,11.45
2022-10-24T15:26:08.935Z,16.15
2022-10-24T15:28:56.451Z,16.88
2022-10-24T15:31:27.558Z,22.35
2022-10-24T15:33:55.279Z,8.88
2022-10-24T15:36:24.640Z,11.82
2022-10-24T15:38:59.559Z,19.05
2022-10-24T15:41:27.097Z,14.93
2022-10-24T15:43:54.950Z,9.50
2022-10-24T15:46:22.251Z,14.88
2022-10-24T15:48:49.919Z,20.02
2022-10-24T15:51:18.955Z,11.52
2022-10-24T15:53:46.760Z,11.20
2022-10-24T15:56:13.990Z,17.42
2022-10-24T15:58:42.009Z,12.85
2022-10-24T16:01:30.147Z,20.25
2022-10-24T16:03:58.268Z,19.70
2022-10-24T16:06:25.680Z,14.93
2022-10-24T16:08:53.092Z,21.00
2022-10-24T16:11:20.696Z,16.73
2022-10-24T16:13:48.083Z,13.80
2022-10-24T16:16:15.403Z,27.17
2022-10-24T16:18:42.784Z,23.00
2022-10-24T16:21:12.803Z,17.40
2022-10-24T16:23:40.124Z,18.50
2022-10-24T16:26:07.367Z,16.73
2022-10-24T16:28:34.525Z,19.40
2022-10-24T16:31:01.736Z,10.80
2022-10-24T16:33:29.022Z,11.52
2022-10-24T16:35:56.249Z,21.23
2022-10-24T16:38:23.640Z,11.07
2022-10-24T16:40:51.036Z,9.25
2022-10-24T16:43:20.003Z,8.50
2022-10-24T16:45:56.449Z,7.47
2022-10-24T16:48:23.678Z,12.98
2022-10-24T16:50:50.935Z,14.07
2022-10-24T16:53:18.465Z,14.32
2022-10-24T16:55:52.651Z,11.65
2022-10-24T16:58:20.180Z,15.15
2022-10-24T17:00:47.857Z,13.75
2022-10-24T17:03:15.097Z,28.77
2022-10-24T17:08:18.150Z,19.08
2022-10-24T17:10:45.454Z,17.77
2022-10-24T17:13:12.648Z,24.92
2022-10-24T17:15:40.314Z,19.63
2022-10-24T17:18:08.980Z,16.75
2022-10-24T17:20:36.245Z,15.05
2022-10-24T17:23:05.782Z,16.38
2022-10-24T17:25:33.944Z,14.85
2022-10-24T17:28:01.142Z,19.80
2022-10-24T17:30:32.620Z,20.27
2022-10-24T17:32:59.910Z,19.08
2022-10-24T17:35:27.685Z,19.08
2022-10-24T17:38:03.145Z,20.75
2022-10-24T17:40:32.212Z,24.83
2022-10-24T17:42:59.560Z,16.58
2022-10-24T17:45:26.796Z,19.65
2022-10-24T17:47:55.481Z,17.85
2022-10-24T17:50:22.790Z,16.38
2022-10-24T17:52:51.295Z,17.33
2022-10-24T17:55:51.870Z,19.38
2022-10-24T17:58:10.716Z,14.43
2022-10-24T18:00:37.943Z,12.80
2022-10-24T18:03:05.280Z,17.92
2022-10-24T18:05:37.431Z,12.10
2022-10-24T18:08:05.347Z,14.73
2022-10-24T18:10:32.579Z,12.07
2022-10-24T18:13:00.244Z,14.75
2022-10-24T18:15:27.734Z,18.50
2022-10-24T18:17:55.128Z,14.07
2022-10-24T18:20:22.325Z,16.90
2022-10-24T18:22:49.781Z,18.10
2022-10-24T18:25:20.424Z,13.32
2022-10-24T18:27:50.225Z,16.60
2022-10-24T18:30:19.075Z,9.43
2022-10-24T18:32:46.719Z,7.68
2022-10-24T18:35:14.407Z,12.32
2022-10-24T18:37:41.699Z,12.68
2022-10-24T18:40:09.585Z,14.68
2022-10-24T18:42:49.863Z,14.88
2022-10-24T18:45:24.819Z,17.55
2022-10-24T18:47:52.931Z,12.45
2022-10-24T18:50:24.342Z,20.63
2022-10-24T18:53:00.811Z,19.73
2022-10-24T18:55:29.618Z,16.98
2022-10-24T18:57:56.967Z,20.00
2022-10-24T19:00:25.639Z,12.82
2022-10-24T19:03:11.304Z,9.35
2022-10-24T19:05:42.202Z,14.07
2022-10-24T19:08:12.404Z,18.52
2022-10-24T19:10:39.628Z,16.25
2022-10-24T19:13:07.696Z,7.80
2022-10-24T19:15:36.404Z,15.70
2022-10-24T19:18:03.682Z,18.05
2022-10-24T19:20:32.759Z,18.00
2022-10-24T19:23:04.857Z,24.88
2022-10-24T19:25:32.717Z,19.13
2022-10-24T19:28:00.008Z,12.05
2022-10-24T19:30:27.225Z,9.10
2022-10-24T19:32:54.447Z,8.25
2022-10-24T19:35:21.677Z,12.13
2022-10-24T19:37:49.040Z,19.77
2022-10-24T19:40:17.744Z,9.65
2022-10-24T19:42:44.932Z,14.95
2022-10-24T19:45:12.211Z,14.93
2022-10-24T19:47:39.484Z,9.40
2022-10-24T19:50:07.032Z,14.20
2022-10-24T19:52:34.236Z,15.45
2022-10-24T19:55:01.468Z,10.55
2022-10-24T19:57:28.806Z,9.23
2022-10-24T19:59:55.992Z,8.07
2022-10-24T20:02:23.339Z,10.60
2022-10-24T20:04:50.751Z,12.15
2022-10-24T20:07:17.959Z,8.18
2022-10-24T20:09:45.148Z,7.15
2022-10-24T20:12:12.366Z,7.93
2022-10-24T20:14:39.565Z,12.63
2022-10-24T20:17:06.736Z,7.88
2022-10-24T20:19:33.985Z,8.48
2022-10-24T20:22:02.478Z,8.60
2022-10-24T20:24:30.610Z,8.07
2022-10-24T20:26:58.017Z,14.80
2022-10-24T20:29:25.332Z,9.05
2022-10-24T20:31:52.586Z,21.05
2022-10-24T20:34:20.936Z,8.38
2022-10-24T20:36:48.241Z,11.73
2022-10-24T20:39:20.693Z,11.70
2022-10-24T20:41:51.776Z,13.80
2022-10-24T20:44:21.303Z,20.23
2022-10-24T20:46:48.513Z,7.82
2022-10-24T20:49:15.847Z,12.35
2022-10-24T20:51:43.206Z,10.82
2022-10-24T20:54:11.087Z,11.68
2022-10-24T20:56:42.329Z,11.32
2022-10-24T20:59:10.073Z,15.63
2022-10-24T21:01:37.278Z,9.75
2022-10-24T21:04:04.554Z,6.85
2022-10-24T21:06:32.926Z,11.68
2022-10-24T21:11:34.996Z,11.50
2022-10-24T21:14:11.429Z,10.00
2022-10-24T21:16:38.739Z,9.38
2022-10-24T21:19:08.658Z,11.68
2022-10-24T21:21:35.995Z,13.95
2022-10-24T21:24:05.736Z,6.32
2022-10-24T21:26:39.535Z,13.48
2022-10-24T21:31:54.315Z,5.95
2022-10-24T21:34:21.918Z,8.25
2022-10-24T21:36:49.173Z,12.32
2022-10-24T21:39:17.149Z,7.22
2022-10-24T21:41:44.405Z,12.20
2022-10-24T21:44:11.871Z,10.05
2022-10-24T21:46:39.120Z,9.90
2022-10-24T21:49:06.380Z,12.65
2022-10-24T21:51:34.921Z,13.25
2022-10-24T21:54:03.916Z,12.05
2022-10-24T21:56:32.620Z,12.15
2022-10-24T22:01:34.932Z,12.20
2022-10-24T22:04:02.561Z,13.50
2022-10-24T22:06:30.363Z,11.50
2022-10-24T22:08:57.899Z,8.90
2022-10-24T22:11:29.190Z,15.60
2022-10-24T22:13:56.705Z,9.25
2022-10-24T22:16:25.277Z,12.60
2022-10-24T22:18:52.946Z,8.88
2022-10-24T22:21:31.375Z,12.68
2022-10-24T22:24:02.853Z,11.75
2022-10-24T22:26:30.150Z,12.65
2022-10-24T22:28:57.510Z,9.52
2022-10-24T22:31:25.717Z,6.97
2022-10-24T22:33:53.564Z,10.63
2022-10-24T22:36:20.799Z,11.52
2022-10-24T22:38:48.291Z,8.25
2022-10-24T22:41:15.569Z,12.43
2022-10-24T22:43:42.961Z,7.75
2022-10-24T22:46:16.903Z,5.78
2022-10-24T22:48:47.697Z,7.93
2022-10-24T22:51:15.220Z,12.98
2022-10-24T22:53:43.909Z,8.38
2022-10-24T22:56:13.344Z,7.10
2022-10-24T22:58:41.811Z,7.20
2022-10-24T23:01:21.528Z,11.35
2022-10-24T23:03:54.575Z,17.08
2022-10-24T23:06:27.923Z,14.25
2022-10-24T23:08:55.362Z,8.93
2022-10-24T23:11:22.766Z,10.75
2022-10-24T23:13:50.130Z,12.88
2022-10-24T23:16:20.385Z,11.98
2022-10-24T23:18:47.716Z,9.13
2022-10-24T23:21:40.945Z,12.30
2022-10-24T23:26:41.641Z,9.02
2022-10-24T23:29:27.395Z,9.52
2022-10-24T23:31:54.834Z,14.02
2022-10-24T23:34:22.262Z,10.02
2022-10-24T23:36:50.105Z,11.43
2022-10-24T23:39:17.481Z,11.18
2022-10-24T23:41:44.876Z,16.85
2022-10-24T23:44:12.617Z,12.40
2022-10-24T23:46:45.431Z,11.10
2022-10-24T23:51:43.472Z,14.07
2022-10-24T23:54:12.028Z,13.27
2022-10-24T23:56:40.004Z,7.22
2022-10-24T23:59:07.267Z,7.45
